Blessing Sw — 3FIP7 — position and weather

sailwx.info

Track history (hours):
 
Tides and Currents Weather Stations Pressure Air Temp Water Temp Dewpoint Dewpoint Depression Visibility Wind Speed Wind Dir Waves Ship Positions

Blessing Sw

Last reported at 2018-Sep-06 21:24 UTC. Time now 2018-Sep-19 00:56 UTC.
Position N 01°01' E 105°09'.
Warning: this ship's position is 12 days out of date.

Length 171 m; draft 5.5 m.

Type: Cargo ship. MMSI: 372085000.

Date/timePositionNaut miles runAvg speedWind from/ knotsBaromVisibWave heightAir tempDewpointWater temp
2018-Sep-06 21:24N 01°01' E 105°09'3210.4
2018-Sep-06 18:21N 01°20' E 104°44'1612.1
2018-Sep-06 17:03N 01°23' E 104°28'214.0
2018-Sep-06 16:56N 01°23' E 104°27'915.5
2018-Sep-06 16:23N 01°18' E 104°20'515.0
2018-Sep-06 16:03N 01°17' E 104°15'115.0
2018-Sep-06 16:00N 01°17' E 104°14'714.7
2018-Sep-06 15:29N 01°15' E 104°07'614.3
2018-Sep-06 15:04N 01°14' E 104°01'113.6
2018-Sep-06 15:00N 01°14' E 104°00'1414.4
2018-Sep-06 14:03N 01°09' E 103°48'0 8.8
2018-Sep-06 14:00N 01°09' E 103°47'714.1
2018-Sep-06 13:30N 01°04' E 103°42'511.6
2018-Sep-06 13:03N 01°04' E 103°37'112.6
2018-Sep-06 12:58N 01°04' E 103°36'511.4
2018-Sep-06 12:31N 01°07' E 103°31'612.1
2018-Sep-06 12:03N 01°10' E 103°26'111.9
2018-Sep-06 11:58N 01°10' E 103°26'511.5
2018-Sep-06 11:30N 01°13' E 103°21'  
Track history (hours):
 
Tides and Currents Weather Stations Pressure Air Temp Water Temp Dewpoint Dewpoint Depression Visibility Wind Speed Wind Dir Waves Ship Positions

Blessing Sw

Last reported at 2018-Sep-06 21:24 UTC. Time now 2018-Sep-19 00:56 UTC.
Position N 01°01' E 105°09'.
Warning: this ship's position is 12 days out of date.

Length 171 m; draft 5.5 m.

Type: Cargo ship. MMSI: 372085000.

Date/timePositionNaut miles runAvg speedWind from/ knotsBaromVisibWave heightAir tempDewpointWater temp
2018-Sep-06 21:24N 01°01' E 105°09'3210.4
2018-Sep-06 18:21N 01°20' E 104°44'1612.1
2018-Sep-06 17:03N 01°23' E 104°28'214.0
2018-Sep-06 16:56N 01°23' E 104°27'915.5
2018-Sep-06 16:23N 01°18' E 104°20'515.0
2018-Sep-06 16:03N 01°17' E 104°15'115.0
2018-Sep-06 16:00N 01°17' E 104°14'714.7
2018-Sep-06 15:29N 01°15' E 104°07'614.3
2018-Sep-06 15:04N 01°14' E 104°01'113.6
2018-Sep-06 15:00N 01°14' E 104°00'1414.4
2018-Sep-06 14:03N 01°09' E 103°48'0 8.8
2018-Sep-06 14:00N 01°09' E 103°47'714.1
2018-Sep-06 13:30N 01°04' E 103°42'511.6
2018-Sep-06 13:03N 01°04' E 103°37'112.6
2018-Sep-06 12:58N 01°04' E 103°36'511.4
2018-Sep-06 12:31N 01°07' E 103°31'612.1
2018-Sep-06 12:03N 01°10' E 103°26'111.9
2018-Sep-06 11:58N 01°10' E 103°26'511.5
2018-Sep-06 11:30N 01°13' E 103°21'  

Dump ship's entire track history